createdAt,value
2017-01-18T00:00:50.598Z,1033.12
2017-01-18T00:01:50.656Z,1033.14
2017-01-18T00:02:50.614Z,1033.11
2017-01-18T00:03:50.622Z,1033.09
2017-01-18T00:04:50.630Z,1033.05
2017-01-18T00:05:50.640Z,1033.03
2017-01-18T00:06:50.644Z,1033.05
2017-01-18T00:07:50.704Z,1033.02
2017-01-18T00:08:50.667Z,1032.98
2017-01-18T00:09:50.670Z,1032.95
2017-01-18T00:10:50.728Z,1032.9
2017-01-18T00:11:50.686Z,1032.89
2017-01-18T00:12:50.746Z,1032.85
2017-01-18T00:13:50.702Z,1032.89
2017-01-18T00:14:50.709Z,1032.89
2017-01-18T00:15:50.717Z,1032.86
2017-01-18T00:16:50.725Z,1032.85
2017-01-18T00:17:50.732Z,1032.82
2017-01-18T00:18:50.740Z,1032.83
2017-01-18T00:19:50.749Z,1032.84
2017-01-18T00:20:50.757Z,1032.84
2017-01-18T00:21:50.765Z,1032.81
2017-01-18T00:22:50.773Z,1032.82
2017-01-18T00:23:50.833Z,1032.86
2017-01-18T00:24:50.790Z,1032.81
2017-01-18T00:25:50.796Z,1032.83
2017-01-18T00:26:50.805Z,1032.89
2017-01-18T00:27:51.765Z,1032.92
2017-01-18T00:28:50.870Z,1032.94
2017-01-18T00:29:50.826Z,1032.94
2017-01-18T00:30:50.837Z,1032.96
2017-01-18T00:31:50.844Z,1033.02
2017-01-18T00:32:50.901Z,1033.07
2017-01-18T00:33:50.860Z,1033.07
2017-01-18T00:34:50.918Z,1033.05
2017-01-18T00:35:50.879Z,1033
2017-01-18T00:36:50.882Z,1032.99
2017-01-18T00:37:50.891Z,1032.99
2017-01-18T00:38:52.000Z,1033.01
2017-01-18T00:39:50.905Z,1033.02
2017-01-18T00:40:50.914Z,1033.02
2017-01-18T00:41:50.922Z,1032.97
2017-01-18T00:42:50.929Z,1032.98
2017-01-18T00:43:50.937Z,1032.95
2017-01-18T00:44:50.946Z,1032.9
2017-01-18T00:45:50.955Z,1032.86
2017-01-18T00:46:50.963Z,1032.88
2017-01-18T00:47:50.972Z,1032.94
2017-01-18T00:48:50.978Z,1032.94
2017-01-18T00:49:51.687Z,1032.95
2017-01-18T00:50:51.044Z,1032.95
2017-01-18T00:51:51.052Z,1032.91
2017-01-18T00:52:51.060Z,1032.91
2017-01-18T00:53:51.019Z,1032.89
2017-01-18T00:54:51.026Z,1032.87
2017-01-18T00:55:51.033Z,1032.91
2017-01-18T00:56:51.041Z,1032.89
2017-01-18T00:57:51.098Z,1032.9
2017-01-18T00:58:51.056Z,1032.93
2017-01-18T00:59:51.064Z,1032.93
2017-01-18T01:00:51.923Z,1032.93
2017-01-18T01:01:51.080Z,1032.91
2017-01-18T01:02:51.088Z,1032.89
2017-01-18T01:03:51.096Z,1032.84
2017-01-18T01:04:51.152Z,1032.88
2017-01-18T01:05:51.111Z,1032.87
2017-01-18T01:06:51.168Z,1032.84
2017-01-18T01:07:51.177Z,1032.91
2017-01-18T01:08:51.184Z,1032.91
2017-01-18T01:09:51.142Z,1032.94
2017-01-18T01:10:51.199Z,1032.99
2017-01-18T01:11:51.858Z,1033.02
2017-01-18T01:12:51.165Z,1033.07
2017-01-18T01:13:51.173Z,1033
2017-01-18T01:14:51.180Z,1033
2017-01-18T01:15:51.189Z,1033.03
2017-01-18T01:16:51.200Z,1033.05
2017-01-18T01:17:51.204Z,1033.11
2017-01-18T01:18:51.211Z,1033.07
2017-01-18T01:19:51.218Z,1033.07
2017-01-18T01:20:51.276Z,1033.08
2017-01-18T01:21:51.234Z,1033.12
2017-01-18T01:22:52.342Z,1033.14
2017-01-18T01:23:51.249Z,1033.21
2017-01-18T01:24:51.257Z,1033.17
2017-01-18T01:25:51.265Z,1033.14
2017-01-18T01:26:51.323Z,1033.16
2017-01-18T01:27:51.280Z,1033.16
2017-01-18T01:28:51.289Z,1033.15
2017-01-18T01:29:51.297Z,1033.15
2017-01-18T01:30:51.352Z,1033.11
2017-01-18T01:31:51.314Z,1033.1
2017-01-18T01:32:51.319Z,1033.03
2017-01-18T01:33:52.328Z,1033.01
2017-01-18T01:34:51.333Z,1032.98
2017-01-18T01:35:51.395Z,1032.95
2017-01-18T01:36:51.400Z,1032.88
2017-01-18T01:37:51.357Z,1032.97
2017-01-18T01:38:51.363Z,1033
2017-01-18T01:39:51.371Z,1033.03
2017-01-18T01:40:51.381Z,1033
2017-01-18T01:41:51.388Z,1032.99
2017-01-18T01:42:51.395Z,1032.99
2017-01-18T01:43:51.403Z,1032.96
2017-01-18T01:44:52.512Z,1033
2017-01-18T01:45:51.419Z,1033.04
2017-01-18T01:46:51.426Z,1033.06
2017-01-18T01:47:51.435Z,1033.1
2017-01-18T01:48:51.441Z,1033.08
2017-01-18T01:49:51.450Z,1033.11
2017-01-18T01:50:51.465Z,1033.12
2017-01-18T01:51:51.463Z,1033.13
2017-01-18T01:52:51.471Z,1033.18
2017-01-18T01:53:51.530Z,1033.22
2017-01-18T01:54:51.488Z,1033.24
2017-01-18T01:55:52.497Z,1033.3
2017-01-18T01:56:51.503Z,1033.32
2017-01-18T01:57:51.511Z,1033.31
2017-01-18T01:58:51.519Z,1033.34
2017-01-18T01:59:51.528Z,1033.31
2017-01-18T02:00:51.605Z,1033.3
2017-01-18T02:01:51.542Z,1033.22
2017-01-18T02:02:51.549Z,1033.17
2017-01-18T02:03:51.607Z,1033.15
2017-01-18T02:04:51.565Z,1033.11
2017-01-18T02:05:51.573Z,1033.11
2017-01-18T02:06:51.630Z,1033.1
2017-01-18T02:07:51.638Z,1033.16
2017-01-18T02:08:51.596Z,1033.17
2017-01-18T02:09:51.605Z,1033.13
2017-01-18T02:10:51.612Z,1033.07
2017-01-18T02:11:51.619Z,1033.07
2017-01-18T02:12:51.628Z,1033.07
2017-01-18T02:13:51.635Z,1033.03
2017-01-18T02:14:51.692Z,1032.99
2017-01-18T02:15:51.650Z,1033
2017-01-18T02:16:51.661Z,1033.01
2017-01-18T02:17:52.786Z,1033
2017-01-18T02:18:51.723Z,1033
2017-01-18T02:19:51.681Z,1032.99
2017-01-18T02:20:51.690Z,1033.01
2017-01-18T02:21:51.697Z,1033.02
2017-01-18T02:22:51.756Z,1033.06
2017-01-18T02:23:51.764Z,1033.04
2017-01-18T02:24:51.720Z,1033.02
2017-01-18T02:25:51.728Z,1032.99
2017-01-18T02:26:51.736Z,1032.97
2017-01-18T02:27:51.744Z,1032.94
2017-01-18T02:28:52.703Z,1032.93
2017-01-18T02:29:51.758Z,1032.86
2017-01-18T02:30:51.768Z,1032.89
2017-01-18T02:31:51.775Z,1032.86
2017-01-18T02:32:51.833Z,1032.86
2017-01-18T02:33:51.841Z,1032.79
2017-01-18T02:34:51.850Z,1032.83
2017-01-18T02:35:51.808Z,1032.83
2017-01-18T02:36:51.862Z,1032.84
2017-01-18T02:37:51.821Z,1032.85
2017-01-18T02:38:51.829Z,1032.89
2017-01-18T02:39:52.637Z,1032.89
2017-01-18T02:40:51.845Z,1032.87
2017-01-18T02:41:51.854Z,1032.87
2017-01-18T02:42:51.861Z,1032.88
2017-01-18T02:43:51.868Z,1032.86
2017-01-18T02:44:51.875Z,1032.9
2017-01-18T02:45:51.883Z,1032.9
2017-01-18T02:46:51.898Z,1032.88
2017-01-18T02:47:51.899Z,1032.92
2017-01-18T02:48:51.907Z,1032.92
2017-01-18T02:49:51.913Z,1032.9
2017-01-18T02:50:52.672Z,1032.91
2017-01-18T02:51:51.930Z,1032.95
2017-01-18T02:52:51.938Z,1032.91
2017-01-18T02:53:51.947Z,1032.89
2017-01-18T02:54:51.954Z,1032.93
2017-01-18T02:55:51.962Z,1032.96
2017-01-18T02:56:51.968Z,1032.95
2017-01-18T02:57:51.979Z,1032.91
2017-01-18T02:58:51.984Z,1032.91
2017-01-18T02:59:51.993Z,1032.89
2017-01-18T03:00:52.000Z,1032.93
2017-01-18T03:01:52.509Z,1032.94
2017-01-18T03:02:52.016Z,1032.93
2017-01-18T03:03:52.025Z,1032.94
2017-01-18T03:04:52.033Z,1032.98
2017-01-18T03:05:52.038Z,1032.98
2017-01-18T03:06:52.097Z,1033
2017-01-18T03:07:52.055Z,1033.01
2017-01-18T03:08:52.063Z,1033
2017-01-18T03:09:52.070Z,1032.99
2017-01-18T03:10:52.078Z,1033.02
2017-01-18T03:11:52.136Z,1033.01
2017-01-18T03:12:52.794Z,1033
2017-01-18T03:13:52.151Z,1032.98
2017-01-18T03:14:52.159Z,1032.98
2017-01-18T03:15:52.131Z,1033
2017-01-18T03:16:52.124Z,1032.98
2017-01-18T03:17:52.131Z,1032.98
2017-01-18T03:18:52.190Z,1033.01
2017-01-18T03:19:52.149Z,1032.99
2017-01-18T03:20:52.155Z,1032.95
2017-01-18T03:21:52.163Z,1032.98
2017-01-18T03:22:52.220Z,1032.95
2017-01-18T03:23:52.679Z,1032.98
2017-01-18T03:24:52.236Z,1032.98
2017-01-18T03:25:52.194Z,1032.97
2017-01-18T03:26:52.253Z,1033
2017-01-18T03:27:52.259Z,1032.96
2017-01-18T03:28:52.217Z,1033
2017-01-18T03:29:52.225Z,1033.01
2017-01-18T03:30:52.233Z,1033
2017-01-18T03:31:52.240Z,1033.04
2017-01-18T03:32:52.248Z,1032.98
2017-01-18T03:33:52.256Z,1033.02
2017-01-18T03:34:52.715Z,1033.07
2017-01-18T03:35:52.272Z,1033.06
2017-01-18T03:36:52.280Z,1033.06
2017-01-18T03:37:52.286Z,1033.09
2017-01-18T03:38:52.344Z,1033.07
2017-01-18T03:39:52.301Z,1033.07
2017-01-18T03:40:52.311Z,1033.06
2017-01-18T03:41:52.317Z,1033.09
2017-01-18T03:42:52.374Z,1033.13
2017-01-18T03:43:52.383Z,1033.08
2017-01-18T03:44:52.341Z,1033.05
2017-01-18T03:45:52.799Z,1033.07
2017-01-18T03:46:52.356Z,1033.01
2017-01-18T03:47:52.414Z,1032.93
2017-01-18T03:48:52.373Z,1032.94
2017-01-18T03:49:52.430Z,1032.93
2017-01-18T03:50:52.387Z,1032.99
2017-01-18T03:51:52.395Z,1032.95
2017-01-18T03:52:52.404Z,1032.95
2017-01-18T03:53:52.412Z,1032.89
2017-01-18T03:54:52.420Z,1032.92
2017-01-18T03:55:52.427Z,1032.92
2017-01-18T03:56:52.786Z,1032.85
2017-01-18T03:57:52.444Z,1032.77
2017-01-18T03:58:52.450Z,1032.78
2017-01-18T03:59:52.460Z,1032.78
2017-01-18T04:00:52.517Z,1032.77
2017-01-18T04:01:52.475Z,1032.77
2017-01-18T04:02:52.484Z,1032.81
2017-01-18T04:03:52.490Z,1032.82
2017-01-18T04:04:52.498Z,1032.83
2017-01-18T04:05:52.509Z,1032.88
2017-01-18T04:06:52.514Z,1032.86
2017-01-18T04:07:52.521Z,1032.88
2017-01-18T04:08:52.528Z,1032.88
2017-01-18T04:09:52.536Z,1032.84
2017-01-18T04:10:52.544Z,1032.85
2017-01-18T04:11:52.553Z,1032.84
2017-01-18T04:12:52.561Z,1032.86
2017-01-18T04:13:52.619Z,1032.82
2017-01-18T04:14:52.627Z,1032.82
2017-01-18T04:15:52.584Z,1032.84
2017-01-18T04:16:52.643Z,1032.83
2017-01-18T04:17:52.600Z,1032.81
2017-01-18T04:18:52.657Z,1032.76
2017-01-18T04:19:52.616Z,1032.79
2017-01-18T04:20:52.623Z,1032.8
2017-01-18T04:21:52.630Z,1032.8
2017-01-18T04:22:52.638Z,1032.76
2017-01-18T04:23:52.645Z,1032.73
2017-01-18T04:24:52.652Z,1032.72
2017-01-18T04:25:52.661Z,1032.68
2017-01-18T04:26:52.668Z,1032.7
2017-01-18T04:27:52.676Z,1032.69
2017-01-18T04:28:52.686Z,1032.62
2017-01-18T04:29:52.691Z,1032.61
2017-01-18T04:30:52.699Z,1032.65
2017-01-18T04:31:52.757Z,1032.67
2017-01-18T04:32:52.765Z,1032.65
2017-01-18T04:33:52.722Z,1032.67
2017-01-18T04:34:52.730Z,1032.7
2017-01-18T04:35:52.738Z,1032.74
2017-01-18T04:36:52.794Z,1032.77
2017-01-18T04:37:52.804Z,1032.79
2017-01-18T04:38:52.761Z,1032.8
2017-01-18T04:39:52.770Z,1032.78
2017-01-18T04:40:52.775Z,1032.73
2017-01-18T04:41:52.833Z,1032.77
2017-01-18T04:42:52.792Z,1032.71
2017-01-18T04:43:52.803Z,1032.67
2017-01-18T04:44:52.809Z,1032.69
2017-01-18T04:45:52.866Z,1032.73
2017-01-18T04:46:52.873Z,1032.68
2017-01-18T04:47:52.832Z,1032.71
2017-01-18T04:48:52.839Z,1032.75
2017-01-18T04:49:52.897Z,1032.73
2017-01-18T04:50:52.855Z,1032.74
2017-01-18T04:51:52.861Z,1032.74
2017-01-18T04:52:52.869Z,1032.74
2017-01-18T04:53:52.877Z,1032.76
2017-01-18T04:54:52.885Z,1032.74
2017-01-18T04:55:52.892Z,1032.76
2017-01-18T04:56:52.899Z,1032.8
2017-01-18T04:57:52.960Z,1032.77
2017-01-18T04:58:52.917Z,1032.7
2017-01-18T04:59:52.925Z,1032.71
2017-01-18T05:00:52.934Z,1032.69
2017-01-18T05:01:52.940Z,1032.68
2017-01-18T05:02:52.948Z,1032.74
2017-01-18T05:03:53.006Z,1032.68
2017-01-18T05:04:52.964Z,1032.72
2017-01-18T05:05:53.022Z,1032.78
2017-01-18T05:06:52.980Z,1032.72
2017-01-18T05:07:52.987Z,1032.77
2017-01-18T05:08:52.995Z,1032.76
2017-01-18T05:09:53.003Z,1032.82
2017-01-18T05:10:53.010Z,1032.86
2017-01-18T05:11:53.018Z,1032.9
2017-01-18T05:12:53.026Z,1032.82
2017-01-18T05:13:53.033Z,1032.8
2017-01-18T05:14:53.042Z,1032.68
2017-01-18T05:15:53.050Z,1032.67
2017-01-18T05:16:53.107Z,1032.72
2017-01-18T05:17:53.114Z,1032.75
2017-01-18T05:18:53.122Z,1032.81
2017-01-18T05:19:53.129Z,1032.86
2017-01-18T05:20:53.087Z,1032.92
2017-01-18T05:21:53.095Z,1032.87
2017-01-18T05:22:53.154Z,1032.88
2017-01-18T05:23:53.161Z,1032.85
2017-01-18T05:24:53.168Z,1032.9
2017-01-18T05:25:53.177Z,1032.94
2017-01-18T05:26:53.132Z,1032.93
2017-01-18T05:27:53.143Z,1032.88
2017-01-18T05:28:53.149Z,1032.87
2017-01-18T05:29:53.207Z,1032.86
2017-01-18T05:30:53.165Z,1032.86
2017-01-18T05:31:53.172Z,1032.91
2017-01-18T05:32:53.180Z,1032.88
2017-01-18T05:33:53.188Z,1032.89
2017-01-18T05:34:53.247Z,1032.89
2017-01-18T05:35:53.203Z,1032.86
2017-01-18T05:36:53.261Z,1032.76
2017-01-18T05:37:53.269Z,1032.7
2017-01-18T05:38:53.227Z,1032.64
2017-01-18T05:39:53.235Z,1032.64
2017-01-18T05:40:53.243Z,1032.63
2017-01-18T05:41:53.300Z,1032.61
2017-01-18T05:42:53.307Z,1032.58
2017-01-18T05:43:53.264Z,1032.57
2017-01-18T05:44:53.272Z,1032.55
2017-01-18T05:45:53.281Z,1032.59
2017-01-18T05:46:53.288Z,1032.58
2017-01-18T05:47:53.296Z,1032.58
2017-01-18T05:48:53.304Z,1032.59
2017-01-18T05:49:53.360Z,1032.64
2017-01-18T05:50:53.369Z,1032.66
2017-01-18T05:51:53.327Z,1032.66
2017-01-18T05:52:53.334Z,1032.65
2017-01-18T05:53:53.340Z,1032.67
2017-01-18T05:54:53.349Z,1032.66
2017-01-18T05:55:53.387Z,1032.74
2017-01-18T05:56:53.365Z,1032.76
2017-01-18T05:57:53.371Z,1032.74
2017-01-18T05:58:53.380Z,1032.69
2017-01-18T05:59:53.487Z,1032.68
2017-01-18T06:00:53.395Z,1032.71
2017-01-18T06:01:53.403Z,1032.71
2017-01-18T06:02:53.412Z,1032.7
2017-01-18T06:03:53.420Z,1032.67
2017-01-18T06:04:53.426Z,1032.61
2017-01-18T06:05:53.485Z,1032.56
2017-01-18T06:06:53.494Z,1032.6
2017-01-18T06:07:53.452Z,1032.65
2017-01-18T06:08:53.459Z,1032.64
2017-01-18T06:09:53.468Z,1032.69
2017-01-18T06:10:53.626Z,1032.68
2017-01-18T06:11:53.534Z,1032.71
2017-01-18T06:12:53.493Z,1032.67
2017-01-18T06:13:53.499Z,1032.68
2017-01-18T06:14:53.507Z,1032.74
2017-01-18T06:15:53.515Z,1032.79
2017-01-18T06:16:53.522Z,1032.83
2017-01-18T06:17:53.529Z,1032.87
2017-01-18T06:18:53.537Z,1032.85
2017-01-18T06:19:53.545Z,1032.9
2017-01-18T06:20:53.553Z,1032.89
2017-01-18T06:21:53.811Z,1032.94
2017-01-18T06:22:53.569Z,1032.96
2017-01-18T06:23:53.626Z,1032.98
2017-01-18T06:24:53.584Z,1032.97
2017-01-18T06:25:53.592Z,1032.95
2017-01-18T06:26:53.600Z,1032.99
2017-01-18T06:27:53.607Z,1032.98
2017-01-18T06:28:53.615Z,1033.01
2017-01-18T06:29:53.624Z,1033.01
2017-01-18T06:30:53.630Z,1033.02
2017-01-18T06:31:53.639Z,1033.02
2017-01-18T06:32:53.898Z,1033.02
2017-01-18T06:33:53.655Z,1032.96
2017-01-18T06:34:53.662Z,1032.93
2017-01-18T06:35:53.721Z,1032.9
2017-01-18T06:36:53.678Z,1032.95
2017-01-18T06:37:53.735Z,1032.96
2017-01-18T06:38:53.743Z,1032.94
2017-01-18T06:39:53.752Z,1032.96
2017-01-18T06:40:53.708Z,1032.91
2017-01-18T06:41:53.766Z,1032.86
2017-01-18T06:42:53.725Z,1032.84
2017-01-18T06:43:53.833Z,1032.91
2017-01-18T06:44:53.740Z,1032.96
2017-01-18T06:45:53.798Z,1032.96
2017-01-18T06:46:53.759Z,1032.91
2017-01-18T06:47:53.765Z,1032.88
2017-01-18T06:48:53.774Z,1032.89
2017-01-18T06:49:53.781Z,1032.88
2017-01-18T06:50:53.790Z,1032.93
2017-01-18T06:51:53.797Z,1032.92
2017-01-18T06:52:53.803Z,1032.91
2017-01-18T06:53:53.862Z,1032.97
2017-01-18T06:54:54.071Z,1032.97
2017-01-18T06:55:53.828Z,1033
2017-01-18T06:56:53.835Z,1032.99
2017-01-18T06:57:53.843Z,1032.97
2017-01-18T06:58:53.851Z,1032.95
2017-01-18T06:59:53.858Z,1032.93
2017-01-18T07:00:53.867Z,1032.96
2017-01-18T07:01:53.874Z,1032.97
2017-01-18T07:02:53.883Z,1032.99
2017-01-18T07:03:53.890Z,1032.96
2017-01-18T07:04:53.948Z,1033.06
2017-01-18T07:05:53.906Z,1033.12
2017-01-18T07:06:53.964Z,1033.12
2017-01-18T07:07:53.922Z,1033.15
2017-01-18T07:08:53.980Z,1033.14
2017-01-18T07:09:53.989Z,1033.14
2017-01-18T07:10:53.945Z,1033.1
2017-01-18T07:11:53.953Z,1033.06
2017-01-18T07:12:53.962Z,1033.04
2017-01-18T07:13:53.969Z,1032.99
2017-01-18T07:14:53.977Z,1032.95
2017-01-18T07:15:53.984Z,1032.92
2017-01-18T07:16:53.993Z,1032.92
2017-01-18T07:17:54.001Z,1032.91
2017-01-18T07:18:54.007Z,1032.89
2017-01-18T07:19:54.017Z,1032.88
2017-01-18T07:20:54.075Z,1032.85
2017-01-18T07:21:54.031Z,1032.88
2017-01-18T07:22:54.038Z,1032.89
2017-01-18T07:23:54.045Z,1032.89
2017-01-18T07:24:54.054Z,1032.88
2017-01-18T07:25:54.062Z,1032.92
2017-01-18T07:26:54.070Z,1032.89
2017-01-18T07:27:54.080Z,1032.91
2017-01-18T07:28:54.085Z,1032.91
2017-01-18T07:29:54.096Z,1032.94
2017-01-18T07:30:54.102Z,1032.98
2017-01-18T07:31:54.112Z,1032.97
2017-01-18T07:32:54.118Z,1032.95
2017-01-18T07:33:54.125Z,1032.89
2017-01-18T07:34:54.134Z,1032.92
2017-01-18T07:35:54.143Z,1033
2017-01-18T07:36:54.148Z,1032.98
2017-01-18T07:37:54.156Z,1032.96
2017-01-18T07:38:54.166Z,1032.99
2017-01-18T07:39:54.222Z,1032.95
2017-01-18T07:40:54.231Z,1033.01
2017-01-18T07:41:54.240Z,1032.96
2017-01-18T07:42:54.197Z,1033
2017-01-18T07:43:54.205Z,1033.03
2017-01-18T07:44:54.263Z,1033.07
2017-01-18T07:45:54.222Z,1033.06
2017-01-18T07:46:54.230Z,1033.06
2017-01-18T07:47:54.236Z,1033.1
2017-01-18T07:48:54.245Z,1033.1
2017-01-18T07:49:54.254Z,1033.11
2017-01-18T07:50:54.311Z,1033.19
2017-01-18T07:51:54.271Z,1033.23
2017-01-18T07:52:54.277Z,1033.27
2017-01-18T07:53:54.287Z,1033.31
2017-01-18T07:54:54.294Z,1033.27
2017-01-18T07:55:54.304Z,1033.36
2017-01-18T07:56:54.311Z,1033.35
2017-01-18T07:57:54.370Z,1033.36
2017-01-18T07:58:54.329Z,1033.45
2017-01-18T07:59:54.385Z,1033.41
2017-01-18T08:00:54.349Z,1033.47
2017-01-18T08:01:54.353Z,1033.4
2017-01-18T08:02:54.361Z,1033.42
2017-01-18T08:03:54.388Z,1033.41
2017-01-18T08:04:54.380Z,1033.41
2017-01-18T08:05:54.436Z,1033.51
2017-01-18T08:06:54.396Z,1033.44
2017-01-18T08:07:54.405Z,1033.41
2017-01-18T08:08:54.412Z,1033.39
2017-01-18T08:09:54.420Z,1033.38
2017-01-18T08:10:54.428Z,1033.35
2017-01-18T08:11:54.637Z,1033.4
2017-01-18T08:12:54.495Z,1033.41
2017-01-18T08:13:54.453Z,1033.37
2017-01-18T08:14:54.462Z,1033.35
2017-01-18T08:15:54.471Z,1033.3
2017-01-18T08:16:54.541Z,1033.36
2017-01-18T08:17:54.488Z,1033.31
2017-01-18T08:18:54.547Z,1033.3
2017-01-18T08:19:54.506Z,1033.31
2017-01-18T08:20:54.513Z,1033.31
2017-01-18T08:21:54.523Z,1033.27
2017-01-18T08:22:54.931Z,1033.29
2017-01-18T08:23:54.538Z,1033.3
2017-01-18T08:24:54.547Z,1033.33
2017-01-18T08:25:54.557Z,1033.37
2017-01-18T08:26:54.564Z,1033.39
2017-01-18T08:27:54.622Z,1033.41
2017-01-18T08:28:54.631Z,1033.43
2017-01-18T08:29:54.641Z,1033.43
2017-01-18T08:30:54.598Z,1033.46
2017-01-18T08:31:54.606Z,1033.45
2017-01-18T08:32:54.615Z,1033.46
2017-01-18T08:33:55.075Z,1033.45
2017-01-18T08:34:54.631Z,1033.49
2017-01-18T08:35:54.638Z,1033.52
2017-01-18T08:36:54.651Z,1033.56
2017-01-18T08:37:54.658Z,1033.58
2017-01-18T08:38:54.666Z,1033.53
2017-01-18T08:39:54.673Z,1033.52
2017-01-18T08:40:54.683Z,1033.55
2017-01-18T08:41:54.691Z,1033.58
2017-01-18T08:42:54.702Z,1033.62
2017-01-18T08:43:54.760Z,1033.59
2017-01-18T08:44:55.269Z,1033.58
2017-01-18T08:45:54.726Z,1033.55
2017-01-18T08:46:54.736Z,1033.56
2017-01-18T08:47:54.744Z,1033.56
2017-01-18T08:48:54.754Z,1033.56
2017-01-18T08:49:54.762Z,1033.52
2017-01-18T08:50:54.772Z,1033.53
2017-01-18T08:51:54.782Z,1033.52
2017-01-18T08:52:54.787Z,1033.55
2017-01-18T08:53:54.848Z,1033.52
2017-01-18T08:54:54.858Z,1033.47
2017-01-18T08:55:55.368Z,1033.52
2017-01-18T08:56:54.826Z,1033.55
2017-01-18T08:57:54.835Z,1033.56
2017-01-18T08:58:54.896Z,1033.61
2017-01-18T08:59:54.904Z,1033.6
2017-01-18T09:00:54.863Z,1033.61
2017-01-18T09:01:54.923Z,1033.59
2017-01-18T09:02:54.882Z,1033.62
2017-01-18T09:03:54.938Z,1033.64
2017-01-18T09:04:54.900Z,1033.61
2017-01-18T09:05:54.910Z,1033.59
2017-01-18T09:06:55.873Z,1033.67
2017-01-18T09:07:54.927Z,1033.61
2017-01-18T09:08:54.937Z,1033.58
2017-01-18T09:09:54.949Z,1033.64
2017-01-18T09:10:54.958Z,1033.67
2017-01-18T09:11:54.967Z,1033.64
2017-01-18T09:12:54.980Z,1033.67
2017-01-18T09:13:54.989Z,1033.67
2017-01-18T09:14:55.049Z,1033.69
2017-01-18T09:15:55.057Z,1033.73
2017-01-18T09:16:55.020Z,1033.75
2017-01-18T09:17:55.932Z,1033.74
2017-01-18T09:18:55.040Z,1033.79
2017-01-18T09:19:55.051Z,1033.85
2017-01-18T09:20:55.113Z,1033.91
2017-01-18T09:21:55.074Z,1033.95
2017-01-18T09:22:55.134Z,1033.9
2017-01-18T09:23:55.093Z,1033.9
2017-01-18T09:24:55.107Z,1033.87
2017-01-18T09:25:55.116Z,1033.79
2017-01-18T09:26:55.128Z,1033.82
2017-01-18T09:27:55.136Z,1033.79
2017-01-18T09:28:56.298Z,1033.82
2017-01-18T09:29:55.157Z,1033.8
2017-01-18T09:30:55.167Z,1033.77
2017-01-18T09:31:55.180Z,1033.75
2017-01-18T09:32:55.188Z,1033.78
2017-01-18T09:33:55.195Z,1033.82
2017-01-18T09:34:55.205Z,1033.86
2017-01-18T09:35:55.215Z,1033.84
2017-01-18T09:36:55.224Z,1033.89
2017-01-18T09:37:55.233Z,1033.97
2017-01-18T09:38:55.243Z,1033.97
2017-01-18T09:39:56.354Z,1033.94
2017-01-18T09:40:55.259Z,1033.93
2017-01-18T09:41:55.321Z,1033.96
2017-01-18T09:42:55.283Z,1033.96
2017-01-18T09:43:55.337Z,1033.93
2017-01-18T09:44:55.297Z,1033.9
2017-01-18T09:45:55.306Z,1033.92
2017-01-18T09:46:55.315Z,1033.87
2017-01-18T09:47:55.322Z,1033.9
2017-01-18T09:48:55.382Z,1033.87
2017-01-18T09:49:55.349Z,1033.9
2017-01-18T09:50:56.552Z,1033.88
2017-01-18T09:51:55.360Z,1033.87
2017-01-18T09:52:55.368Z,1033.86
2017-01-18T09:53:55.427Z,1033.85
2017-01-18T09:54:55.387Z,1033.88
2017-01-18T09:55:55.395Z,1033.87
2017-01-18T09:56:55.404Z,1033.9
2017-01-18T09:57:55.413Z,1033.89
2017-01-18T09:58:55.471Z,1033.96
2017-01-18T09:59:55.430Z,1033.94
2017-01-18T10:00:55.439Z,1034.01
2017-01-18T10:01:55.450Z,1034
2017-01-18T10:02:55.459Z,1033.99
2017-01-18T10:03:55.515Z,1033.99
2017-01-18T10:04:55.523Z,1033.98
2017-01-18T10:05:55.483Z,1034
2017-01-18T10:06:55.491Z,1034
2017-01-18T10:07:55.551Z,1034.09
2017-01-18T10:08:55.510Z,1034.05
2017-01-18T10:09:55.518Z,1034.05
2017-01-18T10:10:55.528Z,1034.09
2017-01-18T10:11:55.537Z,1034.09
2017-01-18T10:12:55.546Z,1034.08
2017-01-18T10:13:55.555Z,1034.11
2017-01-18T10:14:55.562Z,1034.1
2017-01-18T10:15:55.572Z,1034.06
2017-01-18T10:16:55.581Z,1034.04
2017-01-18T10:17:55.642Z,1034.03
2017-01-18T10:18:55.600Z,1034
2017-01-18T10:19:55.607Z,1034.03
2017-01-18T10:20:55.666Z,1034.01
2017-01-18T10:21:55.625Z,1034.04
2017-01-18T10:22:55.635Z,1034.06
2017-01-18T10:23:55.644Z,1034.03
2017-01-18T10:24:55.651Z,1034.03
2017-01-18T10:25:55.661Z,1034.04
2017-01-18T10:26:55.670Z,1034.03
2017-01-18T10:27:55.728Z,1034.01
2017-01-18T10:28:55.689Z,1033.97
2017-01-18T10:29:55.696Z,1033.99
2017-01-18T10:30:55.704Z,1033.98
2017-01-18T10:31:55.764Z,1033.98
2017-01-18T10:32:55.972Z,1034
2017-01-18T10:33:55.732Z,1033.99
2017-01-18T10:34:55.789Z,1033.98
2017-01-18T10:35:55.798Z,1034.01
2017-01-18T10:36:55.758Z,1033.98
2017-01-18T10:37:55.765Z,1034
2017-01-18T10:38:55.823Z,1033.96
2017-01-18T10:39:55.782Z,1033.96
2017-01-18T10:40:55.841Z,1033.91
2017-01-18T10:41:55.849Z,1033.92
2017-01-18T10:42:55.808Z,1033.9
2017-01-18T10:43:56.069Z,1033.87
2017-01-18T10:44:55.826Z,1033.81
2017-01-18T10:45:55.835Z,1033.79
2017-01-18T10:46:55.845Z,1033.79
2017-01-18T10:47:55.851Z,1033.77
2017-01-18T10:48:55.860Z,1033.78
2017-01-18T10:49:55.870Z,1033.81
2017-01-18T10:50:55.877Z,1033.77
2017-01-18T10:51:55.886Z,1033.77
2017-01-18T10:52:55.895Z,1033.79
2017-01-18T10:53:55.902Z,1033.74
2017-01-18T10:54:56.413Z,1033.74
2017-01-18T10:55:55.921Z,1033.7
2017-01-18T10:56:55.928Z,1033.63
2017-01-18T10:57:55.936Z,1033.62
2017-01-18T10:58:55.946Z,1033.55
2017-01-18T10:59:55.955Z,1033.56
2017-01-18T11:00:55.965Z,1033.54
2017-01-18T11:01:55.970Z,1033.54
2017-01-18T11:02:56.031Z,1033.52
2017-01-18T11:03:55.989Z,1033.5
2017-01-18T11:04:55.995Z,1033.48
2017-01-18T11:05:56.506Z,1033.47
2017-01-18T11:06:56.014Z,1033.41
2017-01-18T11:07:56.024Z,1033.39
2017-01-18T11:08:56.082Z,1033.37
2017-01-18T11:09:56.038Z,1033.36
2017-01-18T11:10:56.097Z,1033.32
2017-01-18T11:11:56.056Z,1033.29
2017-01-18T11:12:56.065Z,1033.24
2017-01-18T11:13:56.074Z,1033.22
2017-01-18T11:14:56.084Z,1033.25
2017-01-18T11:15:56.093Z,1033.23
2017-01-18T11:16:57.201Z,1033.26
2017-01-18T11:17:56.160Z,1033.2
2017-01-18T11:18:56.119Z,1033.23
2017-01-18T11:19:56.127Z,1033.23
2017-01-18T11:20:56.137Z,1033.21
2017-01-18T11:21:56.145Z,1033.21
2017-01-18T11:22:56.156Z,1033.21
2017-01-18T11:23:56.212Z,1033.19
2017-01-18T11:24:56.170Z,1033.16
2017-01-18T11:25:56.180Z,1033.16
2017-01-18T11:26:56.188Z,1033.18
2017-01-18T11:27:56.197Z,1033.19
2017-01-18T11:28:56.205Z,1033.18
2017-01-18T11:29:56.215Z,1033.17
2017-01-18T11:30:56.223Z,1033.22
2017-01-18T11:31:56.233Z,1033.2
2017-01-18T11:32:56.242Z,1033.2
2017-01-18T11:33:56.248Z,1033.19
2017-01-18T11:34:56.257Z,1033.21
2017-01-18T11:35:56.266Z,1033.17
2017-01-18T11:36:56.325Z,1033.17
2017-01-18T11:37:56.282Z,1033.19
2017-01-18T11:38:56.292Z,1033.19
2017-01-18T11:39:56.350Z,1033.22
2017-01-18T11:40:56.308Z,1033.2
2017-01-18T11:41:56.316Z,1033.24
2017-01-18T11:42:56.327Z,1033.19
2017-01-18T11:43:56.337Z,1033.16
2017-01-18T11:44:56.391Z,1033.08
2017-01-18T11:45:56.352Z,1033.09
2017-01-18T11:46:56.361Z,1033.06
2017-01-18T11:47:56.369Z,1033.04
2017-01-18T11:48:56.376Z,1033.01
2017-01-18T11:49:56.437Z,1032.97
2017-01-18T11:50:56.395Z,1032.96
2017-01-18T11:51:56.404Z,1032.99
2017-01-18T11:52:56.462Z,1032.98
2017-01-18T11:53:56.470Z,1032.97
2017-01-18T11:54:56.480Z,1032.93
2017-01-18T11:55:56.438Z,1032.88
2017-01-18T11:56:56.446Z,1032.89
2017-01-18T11:57:56.456Z,1032.9
2017-01-18T11:58:56.464Z,1032.94
2017-01-18T11:59:56.521Z,1032.91
2017-01-18T12:00:56.481Z,1032.89
2017-01-18T12:01:56.490Z,1032.9
2017-01-18T12:02:56.496Z,1032.88
2017-01-18T12:03:56.507Z,1032.86
2017-01-18T12:04:56.564Z,1032.85
2017-01-18T12:05:56.523Z,1032.86
2017-01-18T12:06:56.531Z,1032.78
2017-01-18T12:07:56.539Z,1032.86
2017-01-18T12:08:56.598Z,1032.89
2017-01-18T12:09:56.557Z,1032.89